Time;durP1;ratioP1;P1;durP2;ratioP2;P2;SDS_P1;SDS_P2;PMS_P1;PMS_P2;Temp;Humidity;BMP_temperature;BMP_pressure;BME280_temperature;BME280_humidity;BME280_pressure;Samples;Min_cycle;Max_cycle;Signal;HPM_P1;HPM_P2
2022/10/01 00:00:07;;;;;;;;;;;;;;;22.56;58.47;101179.31;7406907;19;1471;-61
2022/10/01 00:02:38;;;;;;;;;;;;;;;22.56;58.51;101180.19;7403996;19;1666;-61
2022/10/01 00:05:09;;;;;;;;;;;;;;;22.53;58.32;101185.84;7406820;19;1309;-61
2022/10/01 00:07:42;;;;;;;;;;;;;;;22.52;58.41;101184.19;7405108;19;1308;-61
2022/10/01 00:10:12;;;;;;;;;;;;;;;22.57;58.24;101191.81;7406245;19;1494;-61
2022/10/01 00:12:43;;;;;;;;;;;;;;;22.52;58.21;101194.09;7407209;19;1842;-61
2022/10/01 00:15:12;;;;;;;;;;;;;;;22.51;58.21;101171.69;7407406;19;1514;-61
2022/10/01 00:17:40;;;;;;;;;;;;;;;22.52;58.32;101172.53;7406074;19;1448;-61
2022/10/01 00:20:09;;;;;;;;;;;;;;;22.50;58.16;101179.91;7405523;19;1661;-61
2022/10/01 00:22:38;;;;;;;;;;;;;;;22.51;58.12;101181.63;7406073;19;1365;-61
2022/10/01 00:25:10;;;;;;;;;;;;;;;22.50;58.14;101186.16;7403564;19;1606;-61
2022/10/01 00:27:38;;;;;;;;;;;;;;;22.51;58.19;101178.94;7406240;19;1423;-61
2022/10/01 00:30:08;;;;;;;;;;;;;;;22.46;58.07;101168.56;7406522;19;1320;-61
2022/10/01 00:32:40;;;;;;;;;;;;;;;22.48;58.34;101161.19;7406669;19;1476;-61
2022/10/01 00:35:08;;;;;;;;;;;;;;;22.49;58.37;101165.59;7406193;19;1494;-61
2022/10/01 00:37:37;;;;;;;;;;;;;;;22.44;58.60;101154.41;7406649;19;1480;-61
2022/10/01 00:40:05;;;;;;;;;;;;;;;22.48;58.00;101166.56;7406558;19;1601;-61
2022/10/01 00:42:37;;;;;;;;;;;;;;;22.50;58.27;101158.34;7407430;19;1098;-61
2022/10/01 00:45:06;;;;;;;;;;;;;;;22.47;58.28;101164.91;7405074;19;1681;-61
2022/10/01 00:47:36;;;;;;;;;;;;;;;22.41;58.14;101133.16;7404723;19;1471;-61
2022/10/01 00:50:08;;;;;;;;;;;;;;;22.42;58.04;101142.91;7404987;19;1367;-61
2022/10/01 00:52:40;;;;;;;;;;;;;;;22.46;58.07;101144.31;7405064;19;1508;-61
2022/10/01 00:55:10;;;;;;;;;;;;;;;22.41;58.00;101150.16;7403639;19;1846;-61
2022/10/01 00:57:42;;;;;;;;;;;;;;;22.43;58.00;101137.38;7406897;19;1376;-61
2022/10/01 01:00:13;;;;;;;;;;;;;;;22.43;58.17;101147.31;7404269;19;1604;-61
2022/10/01 01:02:41;;;;;;;;;;;;;;;22.49;57.83;101168.28;7404156;19;1789;-61
2022/10/01 01:05:12;;;;;;;;;;;;;;;22.45;57.90;101158.81;7403078;19;1601;-61
2022/10/01 01:07:44;;;;;;;;;;;;;;;22.41;57.72;101155.56;7405830;19;1504;-61
2022/10/01 01:10:13;;;;;;;;;;;;;;;22.39;57.75;101162.09;7405335;19;1352;-61
2022/10/01 01:13:00;;;;;;;;;;;;;;;22.39;57.75;101152.16;7404383;19;1526;-61
2022/10/01 01:15:35;;;;;;;;;;;;;;;22.38;57.76;101160.38;7402395;19;1406;-61
2022/10/01 01:18:08;;;;;;;;;;;;;;;22.35;57.81;101160.69;7403851;19;1297;-61
2022/10/01 01:20:51;;;;;;;;;;;;;;;22.38;57.70;101155.00;7405403;19;1317;-61
2022/10/01 01:23:19;;;;;;;;;;;;;;;;;;7405684;19;1273;-61
2022/10/01 01:25:54;;;;;;;;;;;;;;;22.39;58.22;101157.56;7404279;19;1673;-61
2022/10/01 01:28:29;;;;;;;;;;;;;;;22.35;57.46;101144.53;7403272;19;1631;-61
2022/10/01 01:30:59;;;;;;;;;;;;;;;22.39;57.54;101148.63;7402602;19;1494;-61
2022/10/01 01:33:30;;;;;;;;;;;;;;;22.33;57.53;101124.97;7402823;19;1849;-61
2022/10/01 01:36:03;;;;;;;;;;;;;;;22.35;57.79;101144.53;7404829;19;1547;-61
2022/10/01 01:38:36;;;;;;;;;;;;;;;22.37;57.84;101137.16;7404596;19;1388;-61
2022/10/01 01:41:05;;;;;;;;;;;;;;;22.35;57.62;101131.06;7404113;19;1313;-61
2022/10/01 01:43:38;;;;;;;;;;;;;;;22.35;57.72;101128.38;7402338;19;1495;-60
2022/10/01 01:46:09;;;;;;;;;;;;;;;22.34;57.35;101127.53;7404409;19;1646;-61
2022/10/01 01:48:38;;;;;;;;;;;;;;;22.33;57.88;101119.59;7404410;19;1610;-61
2022/10/01 01:51:10;;;;;;;;;;;;;;;22.33;57.51;101130.34;7403406;19;1525;-61
2022/10/01 01:53:38;;;;;;;;;;;;;;;22.39;57.37;101156.72;7403680;19;1843;-61
2022/10/01 01:56:07;;;;;;;;;;;;;;;22.46;57.47;101136.22;7401856;19;1712;-62
2022/10/01 01:58:39;;;;;;;;;;;;;;;22.52;57.54;101146.44;7402002;19;1669;-61
2022/10/01 02:01:08;;;;;;;;;;;;;;;22.47;57.96;101148.72;7393577;19;1426;-62
2022/10/01 02:03:37;;;;;;;;;;;;;;;22.47;58.49;101151.41;7395763;19;1621;-61
2022/10/01 02:06:12;;;;;;;;;;;;;;;22.45;58.40;101169.59;7400011;19;1477;-62
2022/10/01 02:08:46;;;;;;;;;;;;;;;22.46;58.59;101176.66;7402172;19;1301;-62
2022/10/01 02:11:24;;;;;;;;;;;;;;;22.42;58.37;101162.66;7399261;19;1487;-61
2022/10/01 02:14:01;;;;;;;;;;;;;;;22.42;58.65;101168.03;7394990;19;1862;-62
2022/10/01 02:16:32;;;;;;;;;;;;;;;22.40;58.70;101147.63;7400343;19;1384;-62
2022/10/01 02:19:02;;;;;;;;;;;;;;;22.44;58.50;101154.41;7401263;19;1388;-62
2022/10/01 02:21:34;;;;;;;;;;;;;;;22.46;58.51;101165.88;7400727;19;1542;-62
2022/10/01 02:24:04;;;;;;;;;;;;;;;22.41;58.34;101155.56;7401052;19;1468;-61
2022/10/01 02:26:34;;;;;;;;;;;;;;;22.40;58.43;101158.38;7401954;19;1371;-61
2022/10/01 02:29:08;;;;;;;;;;;;;;;22.43;58.63;101147.31;7399834;19;1501;-61
2022/10/01 02:31:37;;;;;;;;;;;;;;;22.42;58.18;101153.69;7402201;19;1412;-62
2022/10/01 02:34:07;;;;;;;;;;;;;;;22.42;58.40;101140.22;7405895;19;1870;-62
2022/10/01 02:36:40;;;;;;;;;;;;;;;22.38;58.22;101138.84;7406681;19;1372;-61
2022/10/01 02:39:09;;;;;;;;;;;;;;;22.42;58.45;101162.66;7411072;19;1175;-61
2022/10/01 02:41:37;;;;;;;;;;;;;;;22.41;58.53;101155.56;7408308;19;1744;-62
2022/10/01 02:44:10;;;;;;;;;;;;;;;22.40;58.18;101170.03;7407457;19;1308;-62
2022/10/01 02:46:41;;;;;;;;;;;;;;;22.39;58.19;101162.94;7408160;19;1657;-62
2022/10/01 02:49:12;;;;;;;;;;;;;;;22.42;58.15;101161.78;7407676;19;1484;-61
2022/10/01 02:51:45;;;;;;;;;;;;;;;22.37;58.08;101150.63;7409538;19;1395;-61
2022/10/01 02:54:16;;;;;;;;;;;;;;;22.35;58.27;101149.91;7406509;19;1850;-62
2022/10/01 02:59:28;;;;;;;;;;;;;;;22.32;58.17;101160.97;7406201;19;1460;-62
2022/10/01 03:01:56;;;;;;;;;;;;;;;22.37;58.21;101158.72;7403234;19;1473;-62
2022/10/01 03:04:25;;;;;;;;;;;;;;;22.36;58.05;101159.69;7403367;19;1428;-61
2022/10/01 03:06:53;;;;;;;;;;;;;;;22.35;58.11;101139.16;7407932;19;1305;-62
2022/10/01 03:09:21;;;;;;;;;;;;;;;22.35;58.36;101144.53;7407596;19;1475;-62
2022/10/01 03:11:50;;;;;;;;;;;;;;;22.35;57.89;101139.16;7407331;19;1447;-62
2022/10/01 03:14:18;;;;;;;;;;;;;;;22.36;57.83;101157.00;7406639;19;1857;-62
2022/10/01 03:16:49;;;;;;;;;;;;;;;22.35;58.17;101148.06;7406263;19;1550;-62
2022/10/01 03:19:17;;;;;;;;;;;;;;;22.34;57.70;101158.97;7406954;19;1527;-61
2022/10/01 03:21:45;;;;;;;;;;;;;;;22.30;58.00;101136.03;7405771;19;1416;-62
2022/10/01 03:24:14;;;;;;;;;;;;;;;22.30;57.99;101147.66;7408147;19;1404;-61
2022/10/01 03:26:42;;;;;;;;;;;;;;;22.32;57.84;101142.13;7407260;19;1400;-61
2022/10/01 03:29:12;;;;;;;;;;;;;;;22.33;58.14;101147.38;7405783;19;1437;-62
2022/10/01 03:31:40;;;;;;;;;;;;;;;22.30;57.81;101149.50;7403596;19;1382;-61
2022/10/01 03:34:12;;;;;;;;;;;;;;;22.30;57.90;101136.03;7406788;19;1849;-62
2022/10/01 03:36:40;;;;;;;;;;;;;;;22.31;57.89;101145.84;7408401;19;1395;-62
2022/10/01 03:39:09;;;;;;;;;;;;;;;22.30;57.92;101147.66;7407020;19;1344;-61
2022/10/01 03:41:37;;;;;;;;;;;;;;;22.30;57.87;101138.72;7407572;19;1565;-61
2022/10/01 03:44:06;;;;;;;;;;;;;;;22.29;58.04;101137.03;7408205;19;1626;-62
2022/10/01 03:46:34;;;;;;;;;;;;;;;22.28;57.71;101122.69;7407459;19;1475;-61
2022/10/01 03:49:03;;;;;;;;;;;;;;;22.28;57.75;101113.78;7407115;19;1502;-62
2022/10/01 03:51:36;;;;;;;;;;;;;;;22.29;57.97;101147.81;7407578;19;1451;-62
2022/10/01 03:54:04;;;;;;;;;;;;;;;22.32;57.83;101144.81;7407079;19;1849;-62
2022/10/01 03:56:33;;;;;;;;;;;;;;;22.28;58.03;101138.88;7404166;19;1545;-61
2022/10/01 03:59:01;;;;;;;;;;;;;;;22.28;57.88;101144.25;7404529;19;1591;-61
2022/10/01 04:01:30;;;;;;;;;;;;;;;22.27;57.67;101142.56;7405633;19;1546;-62
2022/10/01 04:03:58;;;;;;;;;;;;;;;22.29;57.80;101153.22;7406156;19;1381;-62
2022/10/01 04:06:26;;;;;;;;;;;;;;;22.31;57.96;101153.91;7402040;19;1498;-62
2022/10/01 04:08:57;;;;;;;;;;;;;;;22.33;57.74;101141.13;7399095;19;1253;-62
2022/10/01 04:11:26;;;;;;;;;;;;;;;22.44;58.38;101141.78;7405734;19;1399;-61
2022/10/01 04:13:56;;;;;;;;;;;;;;;22.46;59.42;101171.28;7403830;19;1472;-61
2022/10/01 04:16:25;;;;;;;;;;;;;;;22.41;58.27;101171.72;7407638;19;1563;-61
2022/10/01 04:18:53;;;;;;;;;;;;;;;22.36;57.51;101170.47;7367362;19;12527;-61
2022/10/01 04:21:21;;;;;;;;;;;;;;;22.34;57.46;101180.53;7399866;19;1513;-62
2022/10/01 04:23:50;;;;;;;;;;;;;;;22.31;57.46;101164.69;7407319;19;1318;-62
2022/10/01 04:26:20;;;;;;;;;;;;;;;22.50;58.38;101167.31;7405801;19;1485;-62
2022/10/01 04:28:49;;;;;;;;;;;;;;;22.40;58.05;101163.78;7403781;19;1404;-62
2022/10/01 04:31:26;;;;;;;;;;;;;;;22.35;57.81;101166.09;7404782;19;1433;-61
2022/10/01 04:33:55;;;;;;;;;;;;;;;22.37;58.00;101153.31;7404869;19;1357;-63
2022/10/01 04:36:24;;;;;;;;;;;;;;;22.59;57.51;101158.31;7403214;19;1841;-60
2022/10/01 04:38:53;;;;;;;;;;;;;;;22.68;58.28;101163.78;7405393;19;1340;-62
2022/10/01 04:41:24;;;;;;;;;;;;;;;22.82;57.91;101155.22;7403547;19;1517;-63
2022/10/01 04:43:53;;;;;;;;;;;;;;;23.17;57.99;101151.72;7405219;19;1457;-61
2022/10/01 04:46:21;;;;;;;;;;;;;;;24.18;55.52;101164.00;7403466;19;1465;-62
2022/10/01 04:48:50;;;;;;;;;;;;;;;25.85;51.69;101157.84;7403778;19;1354;-62
2022/10/01 04:51:19;;;;;;;;;;;;;;;26.35;50.26;101154.03;7404796;19;1556;-61
2022/10/01 04:53:47;;;;;;;;;;;;;;;24.74;55.33;101161.75;7404111;19;1363;-61
2022/10/01 04:56:15;;;;;;;;;;;;;;;23.66;58.09;101172.91;7404309;19;1850;-61
2022/10/01 04:58:47;;;;;;;;;;;;;;;23.28;57.09;101169.56;7403529;19;1393;-61
2022/10/01 05:01:18;;;;;;;;;;;;;;;23.17;58.17;101162.50;7401101;19;1529;-61
2022/10/01 05:03:46;;;;;;;;;;;;;;;23.16;58.86;101160.84;7404209;19;1298;-61
2022/10/01 05:06:15;;;;;;;;;;;;;;;23.09;58.96;101158.91;7404180;19;1394;-62
2022/10/01 05:08:43;;;;;;;;;;;;;;;23.05;57.66;101171.00;7404502;19;1417;-64
2022/10/01 05:11:11;;;;;;;;;;;;;;;23.14;58.58;101170.06;7404691;19;1501;-62
2022/10/01 05:13:40;;;;;;;;;;;;;;;25.95;51.89;101167.50;7403631;19;1414;-61
2022/10/01 05:16:11;;;;;;;;;;;;;;;27.86;46.61;101166.31;7402409;19;1850;-65
2022/10/01 05:18:42;;;;;;;;;;;;;;;27.57;46.06;101165.22;7404005;19;1701;-61
2022/10/01 05:21:11;;;;;;;;;;;;;;;24.84;52.44;101170.56;7401519;19;1283;-62
2022/10/01 05:23:39;;;;;;;;;;;;;;;23.92;53.41;101178.38;7404592;19;1489;-63
2022/10/01 05:26:07;;;;;;;;;;;;;;;23.58;56.55;101191.75;7401010;19;1560;-64
2022/10/01 05:28:41;;;;;;;;;;;;;;;23.39;57.47;101181.94;7403757;19;1523;-65
2022/10/01 05:31:13;;;;;;;;;;;;;;;23.36;56.61;101176.88;7403513;19;1468;-69
2022/10/01 05:33:42;;;;;;;;;;;;;;;23.34;56.64;101173.50;7402630;19;1528;-64
2022/10/01 05:36:10;;;;;;;;;;;;;;;23.37;57.10;101176.69;7402043;19;2135;-61
2022/10/01 05:38:38;;;;;;;;;;;;;;;23.45;56.54;101180.50;7404052;19;1690;-62
2022/10/01 05:41:07;;;;;;;;;;;;;;;23.42;57.31;101171.69;7401345;19;1433;-62
2022/10/01 05:43:35;;;;;;;;;;;;;;;23.49;56.91;101160.28;7402150;19;1567;-62
2022/10/01 05:46:04;;;;;;;;;;;;;;;23.58;56.35;101145.84;7402293;19;1519;-62
2022/10/01 05:48:36;;;;;;;;;;;;;;;23.50;55.51;101162.84;7401094;19;1564;-62
2022/10/01 05:51:07;;;;;;;;;;;;;;;23.51;57.11;101164.50;7403440;19;1576;-62
2022/10/01 05:53:36;;;;;;;;;;;;;;;23.47;58.28;101162.28;7401809;19;1766;-61
2022/10/01 05:56:04;;;;;;;;;;;;;;;23.47;58.27;101143.38;7401925;19;1845;-62
2022/10/01 05:58:33;;;;;;;;;;;;;;;23.50;58.14;101184.44;7402305;19;1350;-61
2022/10/01 06:01:01;;;;;;;;;;;;;;;23.57;58.37;101173.84;7401778;19;1501;-62
2022/10/01 06:03:30;;;;;;;;;;;;;;;23.52;57.57;101170.78;7402736;19;1516;-64
2022/10/01 06:06:04;;;;;;;;;;;;;;;23.59;58.10;101175.38;7405257;19;1462;-64
2022/10/01 06:08:32;;;;;;;;;;;;;;;23.58;57.74;101172.84;7408535;19;1596;-61
2022/10/01 06:11:02;;;;;;;;;;;;;;;23.65;57.54;101165.81;7410521;19;1492;-64
2022/10/01 06:13:30;;;;;;;;;;;;;;;23.78;57.23;101171.69;7409402;19;1441;-60
2022/10/01 06:15:59;;;;;;;;;;;;;;;23.65;56.60;101182.00;7408165;19;1842;-61
2022/10/01 06:18:28;;;;;;;;;;;;;;;23.62;57.08;101172.38;7409855;19;1203;-61
2022/10/01 06:20:56;;;;;;;;;;;;;;;23.65;56.90;101181.16;7410876;19;1386;-60
2022/10/01 06:23:27;;;;;;;;;;;;;;;23.62;56.84;101179.63;7406422;19;1667;-60
2022/10/01 06:25:56;;;;;;;;;;;;;;;23.61;56.88;101172.53;7408562;19;1351;-60
2022/10/01 06:28:24;;;;;;;;;;;;;;;23.60;57.57;101178.94;7407550;19;1634;-61
2022/10/01 06:30:52;;;;;;;;;;;;;;;23.63;57.63;101167.81;7408349;19;1337;-61
2022/10/01 06:33:21;;;;;;;;;;;;;;;23.66;57.25;101172.06;7406540;19;1710;-61
2022/10/01 06:35:50;;;;;;;;;;;;;;;23.73;57.37;101189.31;7406101;19;1863;-61
2022/10/01 06:38:20;;;;;;;;;;;;;;;23.67;57.70;101157.56;7406834;19;1511;-61
2022/10/01 06:40:55;;;;;;;;;;;;;;;23.67;57.68;101153.00;7408833;19;1820;-60
2022/10/01 06:43:24;;;;;;;;;;;;;;;23.68;57.77;101141.22;7406314;19;1653;-61
2022/10/01 06:45:52;;;;;;;;;;;;;;;23.70;57.91;101131.09;7405534;19;1516;-61
2022/10/01 06:48:21;;;;;;;;;;;;;;;23.71;57.79;101148.97;7409515;19;1424;-67
2022/10/01 06:50:51;;;;;;;;;;;;;;;22.95;59.56;101146.75;7406014;19;1848;-61
2022/10/01 06:53:19;;;;;;;;;;;;;;;22.06;60.07;101156.22;7408977;19;1440;-61
2022/10/01 06:55:48;;;;;;;;;;;;;;;21.67;59.18;101136.63;7404384;19;1840;-61
2022/10/01 06:58:20;;;;;;;;;;;;;;;21.12;59.12;101134.47;7408824;19;1449;-61
2022/10/01 07:00:48;;;;;;;;;;;;;;;20.80;58.48;101127.50;7408777;19;1528;-62
2022/10/01 07:03:18;;;;;;;;;;;;;;;20.60;58.07;101146.25;7405223;19;1647;-60
2022/10/01 07:05:47;;;;;;;;;;;;;;;20.58;57.45;101134.78;7409873;19;1422;-59
2022/10/01 07:08:16;;;;;;;;;;;;;;;20.43;57.09;101144.19;7403830;19;1781;-60
2022/10/01 07:10:45;;;;;;;;;;;;;;;21.19;60.40;101130.25;7401522;19;1651;-60
2022/10/01 07:13:15;;;;;;;;;;;;;;;21.33;59.22;101148.66;7401139;19;1813;-60
2022/10/01 07:15:46;;;;;;;;;;;;;;;21.43;58.10;101156.75;7397567;19;1832;-60
2022/10/01 07:18:15;;;;;;;;;;;;;;;21.66;58.22;101143.84;7408684;19;1551;-60
2022/10/01 07:20:44;;;;;;;;;;;;;;;22.02;60.01;101139.53;7407573;19;1291;-61
2022/10/01 07:23:13;;;;;;;;;;;;;;;22.19;61.15;101119.03;7403732;19;1642;-60
2022/10/01 07:25:42;;;;;;;;;;;;;;;22.28;62.72;101138.03;7405012;19;1671;-59
2022/10/01 07:28:15;;;;;;;;;;;;;;;22.34;64.13;101115.88;7407556;19;1323;-68
2022/10/01 07:30:46;;;;;;;;;;;;;;;22.39;64.89;101119.81;7409106;19;1342;-70
2022/10/01 07:33:14;;;;;;;;;;;;;;;22.53;65.29;101118.47;7407262;19;1641;-70
2022/10/01 07:35:43;;;;;;;;;;;;;;;22.58;65.59;101102.72;7408732;19;1845;-68
2022/10/01 07:38:11;;;;;;;;;;;;;;;22.64;65.70;101118.28;7408933;19;1543;-67
2022/10/01 07:40:40;;;;;;;;;;;;;;;22.68;66.31;101115.25;7407539;19;1846;-68
2022/10/01 07:43:10;;;;;;;;;;;;;;;22.72;66.57;101119.34;7408117;19;1560;-69
2022/10/01 07:45:38;;;;;;;;;;;;;;;22.75;66.13;101119.91;7408037;19;1228;-68
2022/10/01 07:48:09;;;;;;;;;;;;;;;22.86;66.12;101112.59;7408973;19;1421;-69
2022/10/01 07:50:38;;;;;;;;;;;;;;;22.89;66.36;101121.22;7409125;19;1134;-70
2022/10/01 07:53:06;;;;;;;;;;;;;;;22.97;66.29;101117.78;7407421;19;1587;-69
2022/10/01 07:55:35;;;;;;;;;;;;;;;23.05;65.71;101123.28;7407469;19;1849;-67
2022/10/01 07:58:03;;;;;;;;;;;;;;;23.10;65.52;101118.28;7408019;19;1555;-68
2022/10/01 08:00:32;;;;;;;;;;;;;;;23.09;65.69;101113.88;7408650;19;1365;-70
2022/10/01 08:03:01;;;;;;;;;;;;;;;23.15;65.39;101124.03;7404796;19;1563;-71
2022/10/01 08:05:33;;;;;;;;;;;;;;;23.12;65.62;101096.53;7406517;19;1602;-71
2022/10/01 08:08:02;;;;;;;;;;;;;;;23.12;65.70;101086.59;7405473;19;1796;-71
2022/10/01 08:10:34;;;;;;;;;;;;;;;23.19;65.52;101092.22;7404511;19;1504;-68
2022/10/01 08:13:05;;;;;;;;;;;;;;;23.19;65.09;101074.16;7405256;19;1632;-67
2022/10/01 08:15:33;;;;;;;;;;;;;;;23.21;65.25;101099.16;7406658;19;1850;-68
2022/10/01 08:18:02;;;;;;;;;;;;;;;23.33;64.47;101064.66;7406657;19;1114;-67
2022/10/01 08:20:33;;;;;;;;;;;;;;;23.40;65.20;101064.91;7405865;19;1626;-68
2022/10/01 08:23:05;;;;;;;;;;;;;;;23.40;65.19;101079.25;7406388;19;1583;-69
2022/10/01 08:25:35;;;;;;;;;;;;;;;23.49;65.24;101063.09;7406492;19;1588;-76
2022/10/01 08:28:04;;;;;;;;;;;;;;;23.55;65.72;101048.97;7404657;19;1714;-68
2022/10/01 08:30:32;;;;;;;;;;;;;;;23.56;65.86;101051.53;7404077;19;1635;-68
2022/10/01 08:33:02;;;;;;;;;;;;;;;23.58;65.96;101045.97;7404582;19;1485;-65
2022/10/01 08:35:31;;;;;;;;;;;;;;;23.64;65.48;101037.22;7404200;19;1842;-77
2022/10/01 08:38:05;;;;;;;;;;;;;;;23.70;65.11;101050.09;7404288;19;1650;-75
2022/10/01 08:40:35;;;;;;;;;;;;;;;23.78;64.34;101052.88;7399837;19;1437;-68
2022/10/01 08:43:06;;;;;;;;;;;;;;;23.78;64.34;101052.88;7402296;19;1533;-68
2022/10/01 08:45:37;;;;;;;;;;;;;;;23.75;64.83;101052.31;7404497;19;1544;-68
2022/10/01 08:48:09;;;;;;;;;;;;;;;23.68;64.06;101056.66;7407482;19;1556;-69
2022/10/01 08:50:41;;;;;;;;;;;;;;;23.63;65.07;101032.81;7404360;19;1555;-70
2022/10/01 08:53:18;;;;;;;;;;;;;;;23.58;65.85;101035.16;7406571;19;1769;-70
2022/10/01 08:55:58;;;;;;;;;;;;;;;23.56;65.88;101026.38;7405045;19;1856;-68
2022/10/01 08:58:28;;;;;;;;;;;;;;;23.56;65.74;101012.88;7405617;19;1378;-70
2022/10/01 09:00:57;;;;;;;;;;;;;;;23.52;65.33;101022.31;7403224;19;1632;-69
2022/10/01 09:03:25;;;;;;;;;;;;;;;23.50;65.72;101016.22;7406673;19;1529;-70
2022/10/01 09:06:02;;;;;;;;;;;;;;;23.49;65.37;101030.72;7405266;19;1548;-68
2022/10/01 09:08:45;;;;;;;;;;;;;;;23.49;65.37;101023.47;7404361;19;1444;-69
2022/10/01 09:11:20;;;;;;;;;;;;;;;23.51;65.25;101029.53;7404956;19;1646;-68
2022/10/01 09:14:04;;;;;;;;;;;;;;;23.54;65.09;101020.31;7401634;19;1465;-70
2022/10/01 09:16:37;;;;;;;;;;;;;;;23.52;64.14;101022.31;7401190;19;1857;-67
2022/10/01 09:19:11;;;;;;;;;;;;;;;23.52;64.69;101008.81;7403143;19;1637;-66
2022/10/01 09:21:49;;;;;;;;;;;;;;;22.93;64.34;101025.53;7401691;19;1519;-67
2022/10/01 09:24:24;;;;;;;;;;;;;;;22.29;65.19;101040.06;7403631;19;1630;-68
2022/10/01 09:26:54;;;;;;;;;;;;;;;22.12;65.92;101036.28;7403491;19;1461;-69
2022/10/01 09:29:25;;;;;;;;;;;;;;;22.07;66.25;101047.50;7404772;19;1639;-68
2022/10/01 09:31:55;;;;;;;;;;;;;;;22.00;66.58;101027.53;7402109;19;1516;-66
2022/10/01 09:34:28;;;;;;;;;;;;;;;21.93;66.90;101027.31;7402505;19;1523;-65
2022/10/01 09:37:03;;;;;;;;;;;;;;;21.82;67.05;101022.94;7339387;19;6416;-68
2022/10/01 09:39:36;;;;;;;;;;;;;;;21.73;67.23;101010.38;7402603;19;1514;-68
2022/10/01 09:42:05;;;;;;;;;;;;;;;21.80;67.00;101008.78;7402247;19;1788;-67
2022/10/01 09:44:34;;;;;;;;;;;;;;;21.71;67.01;101007.00;7401150;19;1441;-68
2022/10/01 09:47:03;;;;;;;;;;;;;;;21.60;67.25;100999.94;7401663;19;1445;-67
2022/10/01 09:49:33;;;;;;;;;;;;;;;21.65;67.19;100991.44;7403599;19;1539;-67
2022/10/01 09:52:06;;;;;;;;;;;;;;;21.64;67.32;101005.88;7401629;19;1754;-74
2022/10/01 09:54:41;;;;;;;;;;;;;;;21.77;66.41;100995.63;7404906;19;1370;-67
2022/10/01 09:57:12;;;;;;;;;;;;;;;21.74;65.80;100985.13;7401634;19;1858;-65
2022/10/01 09:59:45;;;;;;;;;;;;;;;21.83;65.34;101007.66;7403480;19;1387;-68
2022/10/01 10:02:19;;;;;;;;;;;;;;;21.76;65.29;100993.91;7400863;19;1505;-68
2022/10/01 10:04:47;;;;;;;;;;;;;;;21.65;65.20;100989.59;7400290;19;1551;-67
2022/10/01 10:07:19;;;;;;;;;;;;;;;21.88;67.18;101009.88;7400761;19;1518;-65
2022/10/01 10:09:50;;;;;;;;;;;;;;;21.91;66.81;100991.59;7402859;19;1567;-66
2022/10/01 10:12:27;;;;;;;;;;;;;;;21.54;65.44;100979.00;7401734;19;1705;-65
2022/10/01 10:14:57;;;;;;;;;;;;;;;21.48;64.41;100984.97;7403510;19;1462;-66
2022/10/01 10:17:26;;;;;;;;;;;;;;;21.40;63.97;100982.97;7400586;19;1879;-65
2022/10/01 10:19:56;;;;;;;;;;;;;;;21.44;63.76;100980.88;7402823;19;1595;-66
2022/10/01 10:22:26;;;;;;;;;;;;;;;21.39;64.01;100985.81;7402827;19;1433;-67
2022/10/01 10:25:04;;;;;;;;;;;;;;;21.38;63.92;100994.88;7403300;19;1638;-68
2022/10/01 10:27:32;;;;;;;;;;;;;;;21.41;63.42;100976.59;7404395;19;1072;-67
2022/10/01 10:30:05;;;;;;;;;;;;;;;21.43;63.48;100974.66;7402912;19;1587;-66
2022/10/01 10:32:34;;;;;;;;;;;;;;;21.54;64.43;100967.38;7402857;19;1667;-66
2022/10/01 10:35:04;;;;;;;;;;;;;;;21.58;65.03;100975.00;7401918;19;1493;-67
2022/10/01 10:37:34;;;;;;;;;;;;;;;21.62;65.74;100970.19;7400321;19;1856;-67
2022/10/01 10:40:08;;;;;;;;;;;;;;;21.83;66.15;100961.88;7400736;19;1688;-69
2022/10/01 10:42:37;;;;;;;;;;;;;;;22.12;67.52;100967.09;7402102;19;1525;-68
2022/10/01 10:45:16;;;;;;;;;;;;;;;22.26;67.85;100975.69;7401628;19;1758;-68
2022/10/01 10:47:46;;;;;;;;;;;;;;;22.15;68.99;100968.66;7402497;19;1804;-67
2022/10/01 10:50:24;;;;;;;;;;;;;;;22.23;69.18;100968.75;7400941;19;1604;-67
2022/10/01 10:52:53;;;;;;;;;;;;;;;22.24;69.43;100949.78;7402751;19;1627;-67
2022/10/01 10:55:25;;;;;;;;;;;;;;;22.39;69.29;100962.69;7403397;19;1775;-65
2022/10/01 10:57:54;;;;;;;;;;;;;;;22.16;67.62;100962.25;7404962;19;1842;-65
2022/10/01 11:00:24;;;;;;;;;;;;;;;21.72;67.08;100965.59;7407543;19;1032;-66
2022/10/01 11:02:55;;;;;;;;;;;;;;;21.57;66.69;100961.72;7405119;19;1430;-66
2022/10/01 11:05:26;;;;;;;;;;;;;;;21.62;65.65;100954.88;7407682;19;1715;-67
2022/10/01 11:07:56;;;;;;;;;;;;;;;21.61;65.00;100953.19;7410055;19;1349;-63
2022/10/01 11:10:32;;;;;;;;;;;;;;;21.93;67.80;100956.44;7409441;19;1531;-64
2022/10/01 11:13:10;;;;;;;;;;;;;;;21.96;66.07;100954.28;7404868;19;1820;-66
2022/10/01 11:15:47;;;;;;;;;;;;;;;21.87;65.57;100944.44;7409537;19;1441;-66
2022/10/01 11:18:26;;;;;;;;;;;;;;;21.96;64.83;100956.97;7404846;19;1856;-65
2022/10/01 11:21:00;;;;;;;;;;;;;;;21.85;64.42;100960.72;7400317;19;1693;-65
2022/10/01 11:23:55;;;;;;;;;;;;;;;21.74;64.54;100958.22;7399896;19;1730;-60
2022/10/01 11:26:32;;;;;;;;;;;;;;;21.77;64.80;100931.03;7401726;19;1374;-60
2022/10/01 11:29:07;;;;;;;;;;;;;;;21.83;65.34;100941.19;7405255;19;1303;-61
2022/10/01 11:31:39;;;;;;;;;;;;;;;21.98;65.55;100943.38;7404788;19;1610;-61
2022/10/01 11:34:19;;;;;;;;;;;;;;;21.92;65.97;100938.59;7402353;19;1302;-61
2022/10/01 11:36:54;;;;;;;;;;;;;;;21.86;66.52;100923.88;7404586;19;1844;-61
2022/10/01 11:39:25;;;;;;;;;;;;;;;21.85;66.85;100936.50;7406822;19;1270;-61
2022/10/01 11:42:00;;;;;;;;;;;;;;;21.90;67.03;100924.44;7407861;19;1635;-61
2022/10/01 11:44:31;;;;;;;;;;;;;;;21.91;67.18;100913.53;7405820;19;1548;-61
2022/10/01 11:47:02;;;;;;;;;;;;;;;21.95;67.15;100901.44;7405200;19;1321;-60
2022/10/01 11:49:42;;;;;;;;;;;;;;;21.95;67.52;100906.81;7404206;19;1616;-61
2022/10/01 11:52:16;;;;;;;;;;;;;;;22.09;69.12;100902.78;7405161;19;1364;-61
2022/10/01 11:54:51;;;;;;;;;;;;;;;22.23;69.00;100898.69;7407808;19;1460;-62
2022/10/01 12:00:06;;;;;;;;;;;;;;;22.33;69.22;100898.66;7406105;19;1524;-61
2022/10/01 12:02:37;;;;;;;;;;;;;;;22.44;69.29;100909.19;7404682;19;1475;-61
2022/10/01 12:05:08;;;;;;;;;;;;;;;22.49;69.01;100900.66;7407826;19;1480;-61
2022/10/01 12:07:41;;;;;;;;;;;;;;;22.57;68.68;100884.53;7407525;19;1404;-61
2022/10/01 12:10:20;;;;;;;;;;;;;;;22.61;68.46;100889.47;7406915;19;1393;-61
2022/10/01 12:12:53;;;;;;;;;;;;;;;22.67;68.41;100889.84;7408010;19;1316;-61
2022/10/01 12:15:25;;;;;;;;;;;;;;;22.68;68.30;100878.91;7408337;19;1036;-61
2022/10/01 12:17:55;;;;;;;;;;;;;;;22.71;67.86;100875.06;7406225;19;1859;-61
2022/10/01 12:20:25;;;;;;;;;;;;;;;22.77;67.62;100866.31;7406838;19;1361;-61
2022/10/01 12:22:55;;;;;;;;;;;;;;;22.80;67.60;100857.91;7406238;19;1242;-61
2022/10/01 12:25:28;;;;;;;;;;;;;;;22.81;67.18;100855.06;7407131;19;1321;-61
2022/10/01 12:28:03;;;;;;;;;;;;;;;22.83;67.48;100858.44;7406886;19;1333;-61
2022/10/01 12:30:36;;;;;;;;;;;;;;;22.88;67.12;100849.91;7405383;19;1219;-61
2022/10/01 12:33:17;;;;;;;;;;;;;;;22.88;67.25;100858.00;7406932;19;1198;-61
2022/10/01 12:35:52;;;;;;;;;;;;;;;22.86;67.37;100846.50;7407169;19;1338;-61
2022/10/01 12:38:37;;;;;;;;;;;;;;;22.89;66.95;100837.25;7406516;19;1859;-61
2022/10/01 12:41:15;;;;;;;;;;;;;;;22.86;67.04;100841.13;7407503;19;1314;-61
2022/10/01 12:43:54;;;;;;;;;;;;;;;22.95;66.74;100840.16;7406484;19;1378;-62
2022/10/01 12:46:28;;;;;;;;;;;;;;;22.92;66.80;100835.09;7405487;19;1369;-61
2022/10/01 12:49:02;;;;;;;;;;;;;;;22.94;66.62;100846.56;7406080;19;1305;-61
2022/10/01 12:51:38;;;;;;;;;;;;;;;22.99;66.16;100830.72;7405440;19;1254;-61
2022/10/01 12:54:11;;;;;;;;;;;;;;;23.06;66.44;100846.28;7406432;19;1393;-61
2022/10/01 12:56:41;;;;;;;;;;;;;;;23.02;66.20;100845.81;7406150;19;1432;-61
2022/10/01 12:59:23;;;;;;;;;;;;;;;23.02;66.16;100827.75;7402012;19;1841;-61
2022/10/01 13:01:59;;;;;;;;;;;;;;;23.06;66.22;100830.97;7404752;19;1508;-61
2022/10/01 13:04:37;;;;;;;;;;;;;;;23.12;65.87;100841.13;7405548;19;1373;-61
2022/10/01 13:07:19;;;;;;;;;;;;;;;23.10;65.80;100824.25;7403374;19;1362;-61
2022/10/01 13:09:53;;;;;;;;;;;;;;;23.11;65.76;100811.59;7404612;19;1821;-61
2022/10/01 13:12:33;;;;;;;;;;;;;;;23.12;65.53;100808.75;7406276;19;1627;-59